createdAt,value
2019-02-06T00:01:29.947Z,92.40
2019-02-06T00:03:56.989Z,92.40
2019-02-06T00:06:24.023Z,91.90
2019-02-06T00:08:51.531Z,92.00
2019-02-06T00:11:18.571Z,91.80
2019-02-06T00:13:46.248Z,91.60
2019-02-06T00:16:13.201Z,91.50
2019-02-06T00:18:40.192Z,91.60
2019-02-06T00:21:07.420Z,91.90
2019-02-06T00:23:34.499Z,91.90
2019-02-06T00:26:01.510Z,92.00
2019-02-06T00:28:28.977Z,92.10
2019-02-06T00:30:56.096Z,91.80
2019-02-06T00:33:23.089Z,91.90
2019-02-06T00:35:50.121Z,92.20
2019-02-06T00:38:17.086Z,92.10
2019-02-06T00:40:44.151Z,92.70
2019-02-06T00:43:11.156Z,92.40
2019-02-06T00:45:38.153Z,92.30
2019-02-06T00:48:05.067Z,92.30
2019-02-06T00:50:32.067Z,92.30
2019-02-06T00:52:59.121Z,92.00
2019-02-06T00:55:26.162Z,91.90
2019-02-06T00:57:53.158Z,92.20
2019-02-06T01:00:21.875Z,93.10
2019-02-06T01:02:50.009Z,92.90
2019-02-06T01:05:17.457Z,92.70
2019-02-06T01:07:44.913Z,92.90
2019-02-06T01:10:12.720Z,92.40
2019-02-06T01:12:39.823Z,92.20
2019-02-06T01:15:08.344Z,92.20
2019-02-06T01:17:35.972Z,92.50
2019-02-06T01:20:04.272Z,92.40
2019-02-06T01:22:31.679Z,93.10
2019-02-06T01:24:58.763Z,92.60
2019-02-06T01:27:25.820Z,92.40
2019-02-06T01:29:52.778Z,92.30
2019-02-06T01:32:19.785Z,92.80
2019-02-06T01:34:46.871Z,92.40
2019-02-06T01:37:13.884Z,92.90
2019-02-06T01:39:40.941Z,93.00
2019-02-06T01:42:08.218Z,93.00
2019-02-06T01:44:35.175Z,93.00
2019-02-06T01:47:02.144Z,93.00
2019-02-06T01:49:29.162Z,92.60
2019-02-06T01:51:56.228Z,93.10
2019-02-06T01:54:23.349Z,92.70
2019-02-06T01:56:50.359Z,93.00
2019-02-06T01:59:17.272Z,93.60
2019-02-06T02:01:44.572Z,93.80
2019-02-06T02:04:11.476Z,93.80
2019-02-06T02:06:38.544Z,93.70
2019-02-06T02:09:07.662Z,93.50
2019-02-06T02:11:34.702Z,93.20
2019-02-06T02:14:01.944Z,93.00
2019-02-06T02:16:29.001Z,93.00
2019-02-06T02:18:56.031Z,93.00
2019-02-06T02:21:23.204Z,92.90
2019-02-06T02:23:50.249Z,93.40
2019-02-06T02:26:17.293Z,93.00
2019-02-06T02:28:44.342Z,93.00
2019-02-06T02:31:11.607Z,92.90
2019-02-06T02:33:38.640Z,93.40
2019-02-06T02:36:15.354Z,93.40
2019-02-06T02:38:34.520Z,93.50
2019-02-06T02:41:01.510Z,93.50
2019-02-06T02:43:28.508Z,93.20
2019-02-06T02:45:55.573Z,92.90
2019-02-06T02:48:22.542Z,92.90
2019-02-06T02:50:49.673Z,93.20
2019-02-06T02:53:16.661Z,93.20
2019-02-06T02:55:43.673Z,92.90
2019-02-06T02:58:10.737Z,92.80
2019-02-06T03:00:50.489Z,93.20
2019-02-06T03:03:25.635Z,93.40
2019-02-06T03:05:52.663Z,93.20
2019-02-06T03:08:19.643Z,93.10
2019-02-06T03:10:46.988Z,92.90
2019-02-06T03:13:13.982Z,92.90
2019-02-06T03:15:41.075Z,93.10
2019-02-06T03:18:08.057Z,93.10
2019-02-06T03:20:35.014Z,93.60
2019-02-06T03:23:02.004Z,93.20
2019-02-06T03:25:29.015Z,93.20
2019-02-06T03:27:56.313Z,93.60
2019-02-06T03:30:23.494Z,93.30
2019-02-06T03:32:50.529Z,93.60
2019-02-06T03:35:17.644Z,93.70
2019-02-06T03:37:44.620Z,93.60
2019-02-06T03:40:12.650Z,93.20
2019-02-06T03:42:40.900Z,92.90
2019-02-06T03:45:08.866Z,92.80
2019-02-06T03:47:36.110Z,92.80
2019-02-06T03:50:05.137Z,92.80
2019-02-06T03:52:32.167Z,93.40
2019-02-06T03:54:59.217Z,93.30
2019-02-06T03:57:26.222Z,93.70
2019-02-06T03:59:54.371Z,93.50
2019-02-06T04:02:23.157Z,93.40
2019-02-06T04:04:50.601Z,93.00
2019-02-06T04:07:19.428Z,92.80
2019-02-06T04:09:49.903Z,92.80
2019-02-06T04:12:16.841Z,92.80
2019-02-06T04:14:43.864Z,92.70
2019-02-06T04:17:10.907Z,92.80
2019-02-06T04:19:37.974Z,92.80
2019-02-06T04:22:05.338Z,92.70
2019-02-06T04:24:32.454Z,93.10
2019-02-06T04:26:59.503Z,93.30
2019-02-06T04:29:26.463Z,93.50
2019-02-06T04:31:53.492Z,93.70
2019-02-06T04:34:22.292Z,93.40
2019-02-06T04:36:49.297Z,93.40
2019-02-06T04:39:18.266Z,93.60
2019-02-06T04:41:45.321Z,93.80
2019-02-06T04:44:12.314Z,93.40
2019-02-06T04:46:39.435Z,93.90
2019-02-06T04:49:06.382Z,94.10
2019-02-06T04:51:33.426Z,94.00
2019-02-06T04:54:00.407Z,93.80
2019-02-06T04:56:27.451Z,93.50
2019-02-06T04:58:56.119Z,93.70
2019-02-06T05:01:23.183Z,93.40
2019-02-06T05:03:50.234Z,93.80
2019-02-06T05:06:17.357Z,94.20
2019-02-06T05:08:44.326Z,93.70
2019-02-06T05:11:11.345Z,93.90
2019-02-06T05:13:38.441Z,94.00
2019-02-06T05:16:05.640Z,93.80
2019-02-06T05:18:32.905Z,93.70
2019-02-06T05:20:59.979Z,93.20
2019-02-06T05:23:26.953Z,94.30
2019-02-06T05:25:53.871Z,94.10
2019-02-06T05:28:20.961Z,94.00
2019-02-06T05:30:48.005Z,93.80
2019-02-06T05:33:15.010Z,94.00
2019-02-06T05:35:42.062Z,93.30
2019-02-06T05:38:09.110Z,93.30
2019-02-06T05:40:36.165Z,93.30
2019-02-06T05:43:04.330Z,93.50
2019-02-06T05:45:31.300Z,93.80
2019-02-06T05:47:58.286Z,93.30
2019-02-06T05:50:25.271Z,93.10
2019-02-06T05:52:52.262Z,92.70
2019-02-06T05:55:19.316Z,92.80
2019-02-06T05:57:47.036Z,93.10
2019-02-06T06:00:21.452Z,93.50
2019-02-06T06:02:48.459Z,93.10
2019-02-06T06:05:16.568Z,92.80
2019-02-06T06:07:45.478Z,92.70
2019-02-06T06:10:13.731Z,92.30
2019-02-06T06:12:41.285Z,92.10
2019-02-06T06:15:09.922Z,92.60
2019-02-06T06:17:36.923Z,93.00
2019-02-06T06:20:05.735Z,92.60
2019-02-06T06:22:32.689Z,93.00
2019-02-06T06:24:59.580Z,93.30
2019-02-06T06:27:26.641Z,93.20
2019-02-06T06:29:53.699Z,93.30
2019-02-06T06:32:21.195Z,94.40
2019-02-06T06:34:48.205Z,93.60
2019-02-06T06:37:15.178Z,94.00
2019-02-06T06:39:42.243Z,94.10
2019-02-06T06:42:09.454Z,94.30
2019-02-06T06:44:36.445Z,94.20
2019-02-06T06:47:03.659Z,94.10
2019-02-06T06:49:30.667Z,94.00
2019-02-06T06:51:57.978Z,94.50
2019-02-06T06:54:25.025Z,94.00
2019-02-06T06:56:51.983Z,94.00
2019-02-06T06:59:19.055Z,93.70
2019-02-06T07:01:46.053Z,93.80
2019-02-06T07:04:13.164Z,93.60
2019-02-06T07:06:40.164Z,93.60
2019-02-06T07:09:08.073Z,93.60
2019-02-06T07:11:35.047Z,93.90
2019-02-06T07:14:03.130Z,93.70
2019-02-06T07:16:30.129Z,94.20
2019-02-06T07:18:57.225Z,94.70
2019-02-06T07:21:24.132Z,95.20
2019-02-06T07:23:51.217Z,95.10
2019-02-06T07:26:18.216Z,95.10
2019-02-06T07:28:45.471Z,94.90
2019-02-06T07:31:12.509Z,94.90
2019-02-06T07:33:39.655Z,94.50
2019-02-06T07:36:06.708Z,93.80
2019-02-06T07:38:34.563Z,94.00
2019-02-06T07:41:01.666Z,94.50
2019-02-06T07:43:28.714Z,94.60
2019-02-06T07:45:55.715Z,94.20
2019-02-06T07:48:22.850Z,93.90
2019-02-06T07:50:49.860Z,94.30
2019-02-06T07:53:16.781Z,94.10
2019-02-06T07:55:43.723Z,93.60
2019-02-06T07:58:10.756Z,94.00
2019-02-06T08:00:37.689Z,94.40
2019-02-06T08:03:04.743Z,94.30
2019-02-06T08:05:31.849Z,94.70
2019-02-06T08:07:58.918Z,94.70
2019-02-06T08:10:28.234Z,94.30
2019-02-06T08:12:55.135Z,94.30
2019-02-06T08:15:22.326Z,94.30
2019-02-06T08:17:49.304Z,93.80
2019-02-06T08:20:17.178Z,94.00
2019-02-06T08:22:44.172Z,93.80
2019-02-06T08:25:12.133Z,94.20
2019-02-06T08:27:39.290Z,94.20
2019-02-06T08:30:11.332Z,94.00
2019-02-06T08:32:38.366Z,93.90
2019-02-06T08:35:06.115Z,93.80
2019-02-06T08:37:33.192Z,93.80
2019-02-06T08:40:00.350Z,93.60
2019-02-06T08:42:29.181Z,93.40
2019-02-06T08:44:56.283Z,93.90
2019-02-06T08:47:23.493Z,94.60
2019-02-06T08:49:50.739Z,94.40
2019-02-06T08:52:17.840Z,94.30
2019-02-06T08:54:45.072Z,94.30
2019-02-06T08:57:12.388Z,94.60
2019-02-06T08:59:39.863Z,94.50
2019-02-06T09:02:07.237Z,94.70
2019-02-06T09:04:34.629Z,94.10
2019-02-06T09:07:05.709Z,93.30
2019-02-06T09:09:35.019Z,93.10
2019-02-06T09:12:02.330Z,92.90
2019-02-06T09:14:29.526Z,92.80
2019-02-06T09:16:56.875Z,93.00
2019-02-06T09:19:24.031Z,92.00
2019-02-06T09:21:51.032Z,91.50
2019-02-06T09:24:18.210Z,91.50
2019-02-06T09:26:45.097Z,91.50
2019-02-06T09:29:12.262Z,91.30
2019-02-06T09:31:41.634Z,91.20
2019-02-06T09:34:09.680Z,91.00
2019-02-06T09:36:37.341Z,91.00
2019-02-06T09:39:11.642Z,90.40
2019-02-06T09:41:36.285Z,90.30
2019-02-06T09:44:03.408Z,90.20
2019-02-06T09:46:30.569Z,90.10
2019-02-06T09:48:57.572Z,90.00
2019-02-06T09:51:24.696Z,89.60
2019-02-06T09:53:52.357Z,89.70
2019-02-06T09:56:19.437Z,88.90
2019-02-06T09:58:46.441Z,88.50
2019-02-06T10:01:13.447Z,87.30
2019-02-06T10:03:40.461Z,86.60
2019-02-06T10:06:07.416Z,86.40
2019-02-06T10:08:34.322Z,86.10
2019-02-06T10:11:01.367Z,85.50
2019-02-06T10:13:28.435Z,84.50
2019-02-06T10:15:55.497Z,83.50
2019-02-06T10:18:23.042Z,83.20
2019-02-06T10:20:50.823Z,84.10
2019-02-06T10:23:18.424Z,84.10
2019-02-06T10:25:45.432Z,83.60
2019-02-06T10:28:14.217Z,82.80
2019-02-06T10:30:44.076Z,82.30
2019-02-06T10:33:11.109Z,82.20
2019-02-06T10:35:38.157Z,82.40
2019-02-06T10:38:05.575Z,79.60
2019-02-06T10:40:32.599Z,77.50
2019-02-06T10:43:00.703Z,74.70
2019-02-06T10:45:27.717Z,74.70
2019-02-06T10:47:55.100Z,74.20
2019-02-06T10:50:22.976Z,73.00
2019-02-06T10:52:50.006Z,71.80
2019-02-06T10:55:17.298Z,72.40
2019-02-06T10:57:44.306Z,74.00
2019-02-06T11:00:19.310Z,75.40
2019-02-06T11:02:46.405Z,76.00
2019-02-06T11:05:13.908Z,75.40
2019-02-06T11:07:40.973Z,76.80
2019-02-06T11:10:09.037Z,76.10
2019-02-06T11:12:36.057Z,76.10
2019-02-06T11:15:04.547Z,75.70
2019-02-06T11:17:31.880Z,76.40
2019-02-06T11:19:58.940Z,76.70
2019-02-06T11:22:26.518Z,77.00
2019-02-06T11:24:53.565Z,77.80
2019-02-06T11:27:20.692Z,77.80
2019-02-06T11:29:48.524Z,78.10
2019-02-06T11:32:15.682Z,79.60
2019-02-06T11:34:42.587Z,79.60
2019-02-06T11:37:09.773Z,79.20
2019-02-06T11:39:36.824Z,78.30
2019-02-06T11:42:04.073Z,78.50
2019-02-06T11:44:31.011Z,79.30
2019-02-06T11:46:57.935Z,78.70
2019-02-06T11:49:26.876Z,77.40
2019-02-06T11:51:53.877Z,77.20
2019-02-06T11:54:20.930Z,78.10
2019-02-06T11:56:47.990Z,77.90
2019-02-06T11:59:15.456Z,78.00
2019-02-06T12:01:42.834Z,78.90
2019-02-06T12:04:09.804Z,78.10
2019-02-06T12:06:36.877Z,77.90
2019-02-06T12:09:10.194Z,78.10
2019-02-06T12:11:37.173Z,77.90
2019-02-06T12:14:04.322Z,77.20
2019-02-06T12:16:31.740Z,77.10
2019-02-06T12:18:58.911Z,77.70
2019-02-06T12:21:26.025Z,76.40
2019-02-06T12:23:52.991Z,76.70
2019-02-06T12:26:20.010Z,76.00
2019-02-06T12:28:47.007Z,74.80
2019-02-06T12:31:14.183Z,74.20
2019-02-06T12:33:41.378Z,74.60
2019-02-06T12:36:08.671Z,75.20
2019-02-06T12:38:35.700Z,75.00
2019-02-06T12:41:03.366Z,75.70
2019-02-06T12:43:30.440Z,75.10
2019-02-06T12:45:57.371Z,74.30
2019-02-06T12:48:24.285Z,74.20
2019-02-06T12:50:51.468Z,74.10
2019-02-06T12:53:20.056Z,75.70
2019-02-06T12:55:47.100Z,74.80
2019-02-06T12:58:14.399Z,74.80
2019-02-06T13:00:41.705Z,74.60
2019-02-06T13:03:13.607Z,75.00
2019-02-06T13:05:41.112Z,74.40
2019-02-06T13:08:20.919Z,74.60
2019-02-06T13:10:48.349Z,75.20
2019-02-06T13:13:15.802Z,75.10
2019-02-06T13:15:42.781Z,75.00
2019-02-06T13:18:09.859Z,74.90
2019-02-06T13:20:36.871Z,75.00
2019-02-06T13:23:04.507Z,75.30
2019-02-06T13:25:31.568Z,75.30
2019-02-06T13:27:58.612Z,74.60
2019-02-06T13:30:30.216Z,74.30
2019-02-06T13:32:57.383Z,74.50
2019-02-06T13:35:24.378Z,74.20
2019-02-06T13:37:51.378Z,74.60
2019-02-06T13:40:19.802Z,73.70
2019-02-06T13:42:46.793Z,73.70
2019-02-06T13:45:20.864Z,73.70
2019-02-06T13:47:48.169Z,73.10
2019-02-06T13:50:22.040Z,73.20
2019-02-06T13:52:44.683Z,72.80
2019-02-06T13:55:14.473Z,72.30
2019-02-06T13:57:40.737Z,72.60
2019-02-06T14:00:11.847Z,72.30
2019-02-06T14:02:39.182Z,72.80
2019-02-06T14:05:06.597Z,72.90
2019-02-06T14:07:33.473Z,72.70
2019-02-06T14:10:00.722Z,73.10
2019-02-06T14:12:27.823Z,72.80
2019-02-06T14:14:54.814Z,72.80
2019-02-06T14:17:21.871Z,72.50
2019-02-06T14:19:48.923Z,72.80
2019-02-06T14:22:16.145Z,72.70
2019-02-06T14:24:50.020Z,72.70
2019-02-06T14:27:54.193Z,72.70
2019-02-06T14:30:49.498Z,72.70
2019-02-06T14:33:41.376Z,72.40
2019-02-06T14:36:47.453Z,72.40
2019-02-06T14:39:45.490Z,72.20
2019-02-06T14:42:34.540Z,72.30
2019-02-06T14:45:35.439Z,72.70
2019-02-06T14:48:43.018Z,72.90
2019-02-06T14:52:10.783Z,73.20
2019-02-06T14:55:21.644Z,73.30
2019-02-06T14:58:25.300Z,73.20
2019-02-06T15:01:55.524Z,73.40
2019-02-06T15:05:01.549Z,73.50
2019-02-06T15:08:22.817Z,73.10
2019-02-06T15:11:23.605Z,73.40
2019-02-06T15:14:22.893Z,73.20
2019-02-06T15:17:43.779Z,73.00
2019-02-06T15:20:51.374Z,72.60
2019-02-06T15:23:55.840Z,73.00
2019-02-06T15:27:19.472Z,73.00
2019-02-06T15:29:56.012Z,73.10
2019-02-06T15:33:17.148Z,74.00
2019-02-06T15:36:34.774Z,74.10
2019-02-06T15:39:40.512Z,74.00
2019-02-06T15:42:32.917Z,74.10
2019-02-06T15:45:26.972Z,74.00
2019-02-06T15:48:25.363Z,74.00
2019-02-06T15:51:52.615Z,74.00
2019-02-06T15:55:12.539Z,74.20
2019-02-06T15:58:15.672Z,74.50
2019-02-06T16:01:23.102Z,75.10
2019-02-06T16:04:37.277Z,75.70
2019-02-06T16:07:48.845Z,76.10
2019-02-06T16:10:58.108Z,76.50
2019-02-06T16:14:12.164Z,77.30
2019-02-06T16:17:30.558Z,76.90
2019-02-06T16:20:35.184Z,76.70
2019-02-06T16:23:52.325Z,77.20
2019-02-06T16:26:56.081Z,77.30
2019-02-06T16:30:00.389Z,77.40
2019-02-06T16:32:55.169Z,77.40
2019-02-06T16:36:12.420Z,77.60
2019-02-06T16:39:05.827Z,77.90
2019-02-06T16:41:57.043Z,78.00
2019-02-06T16:45:01.085Z,78.50
2019-02-06T16:48:10.227Z,78.90
2019-02-06T16:50:58.694Z,79.70
2019-02-06T16:53:49.729Z,80.70
2019-02-06T16:57:07.728Z,81.10
2019-02-06T17:00:21.028Z,82.00
2019-02-06T17:03:19.156Z,81.90
2019-02-06T17:06:49.452Z,82.80
2019-02-06T17:09:56.630Z,83.00
2019-02-06T17:13:17.624Z,83.20
2019-02-06T17:16:22.956Z,83.90
2019-02-06T17:19:25.930Z,84.30
2019-02-06T17:22:43.455Z,84.30
2019-02-06T17:25:36.992Z,84.60
2019-02-06T17:28:36.738Z,84.20
2019-02-06T17:31:33.038Z,84.80
2019-02-06T17:34:31.495Z,85.30
2019-02-06T17:37:24.733Z,85.30
2019-02-06T17:40:32.143Z,85.60
2019-02-06T17:43:24.049Z,86.90
2019-02-06T17:46:23.345Z,86.10
2019-02-06T17:49:44.113Z,87.20
2019-02-06T17:52:52.649Z,88.50
2019-02-06T17:55:23.830Z,89.60
2019-02-06T17:57:54.290Z,89.50
2019-02-06T18:00:31.406Z,88.90
2019-02-06T18:03:00.797Z,90.00
2019-02-06T18:05:27.792Z,89.10
2019-02-06T18:07:55.209Z,89.40
2019-02-06T18:10:23.694Z,89.60
2019-02-06T18:12:50.803Z,89.50
2019-02-06T18:15:17.970Z,89.40
2019-02-06T18:17:45.057Z,89.50
2019-02-06T18:20:13.847Z,89.50
2019-02-06T18:22:41.163Z,88.80
2019-02-06T18:25:09.034Z,88.10
2019-02-06T18:27:36.549Z,88.70
2019-02-06T18:30:06.885Z,89.40
2019-02-06T18:32:34.604Z,89.50
2019-02-06T18:35:03.393Z,89.40
2019-02-06T18:37:30.538Z,89.60
2019-02-06T18:39:58.583Z,89.40
2019-02-06T18:42:25.717Z,89.30
2019-02-06T18:44:52.948Z,89.60
2019-02-06T18:47:21.172Z,90.00
2019-02-06T18:49:48.647Z,89.20
2019-02-06T18:52:20.481Z,89.50
2019-02-06T18:54:44.538Z,90.50
2019-02-06T18:57:11.558Z,90.60
2019-02-06T18:59:38.672Z,90.60
2019-02-06T19:02:05.699Z,90.40
2019-02-06T19:04:33.180Z,90.30
2019-02-06T19:07:00.224Z,90.00
2019-02-06T19:09:28.970Z,90.20
2019-02-06T19:12:04.154Z,90.00
2019-02-06T19:14:31.596Z,90.20
2019-02-06T19:16:58.609Z,90.60
2019-02-06T19:19:26.050Z,90.50
2019-02-06T19:21:53.125Z,90.20
2019-02-06T19:24:23.233Z,90.50
2019-02-06T19:26:51.381Z,90.50
2019-02-06T19:29:18.427Z,90.60
2019-02-06T19:31:45.642Z,90.20
2019-02-06T19:34:13.832Z,90.40
2019-02-06T19:36:41.044Z,90.50
2019-02-06T19:39:08.530Z,91.20
2019-02-06T19:41:35.756Z,91.40
2019-02-06T19:44:03.447Z,91.70
2019-02-06T19:46:30.452Z,91.70
2019-02-06T19:48:58.669Z,91.90
2019-02-06T19:51:26.074Z,92.10
2019-02-06T19:53:53.096Z,91.90
2019-02-06T19:56:20.230Z,91.90
2019-02-06T19:58:47.330Z,91.80
2019-02-06T20:01:15.800Z,91.40
2019-02-06T20:03:43.251Z,91.30
2019-02-06T20:06:12.318Z,91.40
2019-02-06T20:08:41.426Z,91.60
2019-02-06T20:11:08.756Z,91.80
2019-02-06T20:13:36.328Z,91.90
2019-02-06T20:16:03.792Z,91.60
2019-02-06T20:18:34.346Z,91.50
2019-02-06T20:21:01.485Z,91.80
2019-02-06T20:23:28.927Z,91.90
2019-02-06T20:25:56.369Z,91.80
2019-02-06T20:28:23.495Z,92.20
2019-02-06T20:30:50.566Z,91.80
2019-02-06T20:33:20.770Z,91.30
2019-02-06T20:35:47.969Z,91.60
2019-02-06T20:38:15.216Z,91.80
2019-02-06T20:40:42.223Z,92.50
2019-02-06T20:43:09.933Z,92.60
2019-02-06T20:45:36.961Z,92.40
2019-02-06T20:48:04.005Z,92.90
2019-02-06T20:50:32.189Z,92.00
2019-02-06T20:53:45.350Z,92.30
2019-02-06T20:56:14.751Z,92.10
2019-02-06T20:58:41.873Z,91.90
2019-02-06T21:01:09.193Z,92.00
2019-02-06T21:03:36.339Z,91.80
2019-02-06T21:06:03.443Z,92.00
2019-02-06T21:08:30.522Z,92.30
2019-02-06T21:10:57.683Z,92.30
2019-02-06T21:13:32.769Z,92.50
2019-02-06T21:15:53.675Z,92.40
2019-02-06T21:18:21.180Z,92.50
2019-02-06T21:20:48.235Z,92.50
2019-02-06T21:23:15.271Z,92.80
2019-02-06T21:25:42.328Z,92.70
2019-02-06T21:28:09.357Z,92.60
2019-02-06T21:30:36.802Z,93.00
2019-02-06T21:33:04.055Z,93.10
2019-02-06T21:35:31.192Z,93.00
2019-02-06T21:37:58.594Z,92.50
2019-02-06T21:40:27.436Z,93.00
2019-02-06T21:42:54.520Z,93.00
2019-02-06T21:45:21.856Z,92.90
2019-02-06T21:47:49.162Z,93.00
2019-02-06T21:50:17.291Z,92.90
2019-02-06T21:52:44.748Z,93.00
2019-02-06T21:55:13.550Z,93.00
2019-02-06T21:57:41.617Z,93.00
2019-02-06T22:00:13.356Z,93.00
2019-02-06T22:02:40.835Z,93.00
2019-02-06T22:05:08.001Z,93.00
2019-02-06T22:07:35.209Z,93.00
2019-02-06T22:10:04.145Z,93.00
2019-02-06T22:12:31.182Z,93.00
2019-02-06T22:14:58.411Z,93.00
2019-02-06T22:17:25.483Z,93.00
2019-02-06T22:19:52.553Z,93.00
2019-02-06T22:22:19.546Z,93.00
2019-02-06T22:24:46.859Z,93.10
2019-02-06T22:27:15.324Z,93.30
2019-02-06T22:29:42.817Z,93.40
2019-02-06T22:32:09.889Z,93.40
2019-02-06T22:34:36.931Z,93.40
2019-02-06T22:37:04.793Z,93.60
2019-02-06T22:39:31.757Z,93.10
2019-02-06T22:41:58.996Z,93.00
2019-02-06T22:44:26.045Z,93.20
2019-02-06T22:46:53.792Z,93.40
2019-02-06T22:49:20.892Z,93.60
2019-02-06T22:51:47.988Z,93.50
2019-02-06T22:54:17.101Z,93.10
2019-02-06T22:56:44.727Z,93.10
2019-02-06T22:59:13.723Z,93.00
2019-02-06T23:01:53.057Z,93.00
2019-02-06T23:04:20.369Z,93.10
2019-02-06T23:06:47.509Z,93.10
2019-02-06T23:09:14.787Z,93.00
2019-02-06T23:11:41.845Z,93.70
2019-02-06T23:14:17.092Z,93.70
2019-02-06T23:16:37.984Z,93.70
2019-02-06T23:19:05.053Z,94.20
2019-02-06T23:21:32.346Z,94.00
2019-02-06T23:24:04.866Z,94.30
2019-02-06T23:26:31.970Z,94.00
2019-02-06T23:28:59.583Z,94.30
2019-02-06T23:31:26.576Z,94.00
2019-02-06T23:33:54.009Z,93.70
2019-02-06T23:36:21.038Z,93.30
2019-02-06T23:38:49.322Z,94.40
2019-02-06T23:41:16.229Z,94.10
2019-02-06T23:43:43.245Z,93.60
2019-02-06T23:46:10.160Z,94.10
2019-02-06T23:48:37.184Z,94.10
2019-02-06T23:51:04.606Z,93.80
2019-02-06T23:53:31.610Z,94.00
2019-02-06T23:55:58.723Z,93.70
2019-02-06T23:58:25.765Z,93.10
